Terminal Aerodrome Forecast
Issued by NWS Charleston, WV

Current Version | Previous Version | Graphics & Text | Print | Product List | Glossary On
Versions: 1 2 3 4 5 6 7 8 9 10 11 12 13 14 15 16 17 18 19 20 21 22 23 24 25 26 27 28 29
000
FTUS41 KRLX 042320
TAFPKB
TAF
KPKB 042320Z 0500/0524 33002KT P6SM SCT250
     FM050400 00000KT 4SM BR SKC
     FM050600 00000KT 2SM BR FEW001 SCT250
     FM050700 00000KT 1/4SM FG BKN001
     FM051200 00000KT 2SM BR BKN002
     FM051300 36002KT 5SM BR SCT002 BKN200
     FM051900 VRB02KT P6SM BKN130=

USA.gov is the U.S. government's official web portal to all federal, state and local government web resources and services.